Point Venture, Texas
Current Conditions -  °F | °C
As of 10:15 AM on Sunday 23 Nov 2014 (Local Time) from KRYW Reporting Station
Clear Clear  
Wind Chill: 63°   Ceiling: Unl
Heat Index: 63°   Visibility: 10mi
Dew Point: 54°   Wind: 5mph
Humidity: 71%   Direction: 250°WSW
Pressure: 29.67"   Gusts: NA
Location:  30.4521°N, 97.9683°W
Report Text: KRYW 231615Z AUTO 25004KT 10SM CLR 17/12 A2967 RMK AO2 T01730120
Loading
Personal Weather Stations






























Interactive Weather Map New forecast layout! Learn more

10-Day Weather Forecast

Advertisements
Track Severe Weather on mobile